sensor_id;sensor_type;location;lat;lon;timestamp;pressure;altitude;pressure_sealevel;temperature;humidity
4981;BME280;2507;50.392;7.482;2023-05-12T00:01:01;100582.00;;;15.03;86.69
4981;BME280;2507;50.392;7.482;2023-05-12T00:03:26;100574.75;;;14.86;87.35
4981;BME280;2507;50.392;7.482;2023-05-12T00:05:51;100575.00;;;14.73;88.66
4981;BME280;2507;50.392;7.482;2023-05-12T00:08:17;100567.25;;;14.91;87.44
4981;BME280;2507;50.392;7.482;2023-05-12T00:10:43;100578.94;;;14.88;87.25
4981;BME280;2507;50.392;7.482;2023-05-12T00:13:08;100574.31;;;14.81;87.32
4981;BME280;2507;50.392;7.482;2023-05-12T00:15:35;100569.44;;;14.86;87.27
4981;BME280;2507;50.392;7.482;2023-05-12T00:18:01;100571.69;;;14.81;87.56
4981;BME280;2507;50.392;7.482;2023-05-12T00:20:26;100566.22;;;14.63;88.04
4981;BME280;2507;50.392;7.482;2023-05-12T00:22:52;100566.22;;;14.63;88.58
4981;BME280;2507;50.392;7.482;2023-05-12T00:25:17;100566.94;;;14.65;88.76
4981;BME280;2507;50.392;7.482;2023-05-12T00:27:42;100562.47;;;14.66;88.33
4981;BME280;2507;50.392;7.482;2023-05-12T00:30:08;100560.84;;;14.74;88.15
4981;BME280;2507;50.392;7.482;2023-05-12T00:32:34;100558.03;;;14.66;88.54
4981;BME280;2507;50.392;7.482;2023-05-12T00:34:59;100564.16;;;14.67;88.33
4981;BME280;2507;50.392;7.482;2023-05-12T00:37:24;100555.81;;;14.71;87.86
4981;BME280;2507;50.392;7.482;2023-05-12T00:39:49;100559.19;;;14.92;87.66
4981;BME280;2507;50.392;7.482;2023-05-12T00:42:15;100561.13;;;15.09;85.74
4981;BME280;2507;50.392;7.482;2023-05-12T00:44:40;100546.25;;;15.08;85.15
4981;BME280;2507;50.392;7.482;2023-05-12T00:47:05;100555.00;;;14.90;86.31
4981;BME280;2507;50.392;7.482;2023-05-12T00:49:31;100551.38;;;14.81;86.62
4981;BME280;2507;50.392;7.482;2023-05-12T00:51:57;100551.78;;;14.77;87.47
4981;BME280;2507;50.392;7.482;2023-05-12T00:54:24;100547.34;;;14.77;87.54
4981;BME280;2507;50.392;7.482;2023-05-12T00:56:50;100543.31;;;14.83;87.54
4981;BME280;2507;50.392;7.482;2023-05-12T00:59:16;100549.75;;;14.99;86.12
4981;BME280;2507;50.392;7.482;2023-05-12T01:01:42;100551.13;;;14.94;86.49
4981;BME280;2507;50.392;7.482;2023-05-12T01:04:08;100543.31;;;15.02;86.45
4981;BME280;2507;50.392;7.482;2023-05-12T01:06:40;100538.19;;;15.10;85.99
4981;BME280;2507;50.392;7.482;2023-05-12T01:09:07;100541.81;;;14.99;86.92
4981;BME280;2507;50.392;7.482;2023-05-12T01:11:33;100540.56;;;15.03;86.51
4981;BME280;2507;50.392;7.482;2023-05-12T01:13:58;100533.44;;;15.04;86.53
4981;BME280;2507;50.392;7.482;2023-05-12T01:16:29;100525.81;;;15.10;86.18
4981;BME280;2507;50.392;7.482;2023-05-12T01:18:56;100531.91;;;15.20;86.06
4981;BME280;2507;50.392;7.482;2023-05-12T01:21:22;100525.38;;;15.15;85.41
4981;BME280;2507;50.392;7.482;2023-05-12T01:24:03;100529.56;;;15.17;85.44
4981;BME280;2507;50.392;7.482;2023-05-12T01:26:30;100528.28;;;15.31;85.47
4981;BME280;2507;50.392;7.482;2023-05-12T01:28:58;100532.22;;;15.17;85.00
4981;BME280;2507;50.392;7.482;2023-05-12T01:31:25;100531.09;;;15.01;85.58
4981;BME280;2507;50.392;7.482;2023-05-12T01:33:51;100524.41;;;15.06;86.50
4981;BME280;2507;50.392;7.482;2023-05-12T01:36:16;100521.91;;;14.95;86.87
4981;BME280;2507;50.392;7.482;2023-05-12T01:38:41;100528.84;;;14.96;87.32
4981;BME280;2507;50.392;7.482;2023-05-12T01:41:07;100529.44;;;15.00;87.11
4981;BME280;2507;50.392;7.482;2023-05-12T01:43:32;100521.63;;;14.98;87.72
4981;BME280;2507;50.392;7.482;2023-05-12T01:45:57;100530.94;;;15.02;86.75
4981;BME280;2507;50.392;7.482;2023-05-12T01:48:23;100529.97;;;14.94;87.23
4981;BME280;2507;50.392;7.482;2023-05-12T01:50:48;100522.75;;;14.86;87.49
4981;BME280;2507;50.392;7.482;2023-05-12T01:53:13;100529.28;;;14.92;87.50
4981;BME280;2507;50.392;7.482;2023-05-12T01:55:38;100521.63;;;14.89;86.73
4981;BME280;2507;50.392;7.482;2023-05-12T01:58:04;100524.25;;;14.79;87.58
4981;BME280;2507;50.392;7.482;2023-05-12T02:00:29;100520.22;;;14.75;87.78
4981;BME280;2507;50.392;7.482;2023-05-12T02:02:54;100519.53;;;14.73;88.35
4981;BME280;2507;50.392;7.482;2023-05-12T02:05:20;100519.53;;;14.73;88.55
4981;BME280;2507;50.392;7.482;2023-05-12T02:07:46;100524.97;;;14.81;87.60
4981;BME280;2507;50.392;7.482;2023-05-12T02:10:11;100522.44;;;14.89;87.95
4981;BME280;2507;50.392;7.482;2023-05-12T02:12:36;100531.63;;;14.95;87.51
4981;BME280;2507;50.392;7.482;2023-05-12T02:15:03;100529.13;;;14.93;86.55
4981;BME280;2507;50.392;7.482;2023-05-12T02:17:28;100528.56;;;14.80;87.54
4981;BME280;2507;50.392;7.482;2023-05-12T02:19:53;100537.06;;;14.74;88.26
4981;BME280;2507;50.392;7.482;2023-05-12T02:22:18;100535.78;;;14.78;89.36
4981;BME280;2507;50.392;7.482;2023-05-12T02:24:44;100539.41;;;14.77;89.12
4981;BME280;2507;50.392;7.482;2023-05-12T02:27:09;100531.19;;;14.80;89.07
4981;BME280;2507;50.392;7.482;2023-05-12T02:29:34;100536.50;;;14.80;89.45
4981;BME280;2507;50.392;7.482;2023-05-12T02:32:00;100531.06;;;14.72;90.37
4981;BME280;2507;50.392;7.482;2023-05-12T02:34:25;100530.09;;;14.73;90.19
4981;BME280;2507;50.392;7.482;2023-05-12T02:36:50;100534.94;;;14.68;90.70
4981;BME280;2507;50.392;7.482;2023-05-12T02:39:16;100525.19;;;14.59;90.46
4981;BME280;2507;50.392;7.482;2023-05-12T02:41:41;100528.78;;;14.58;91.11
4981;BME280;2507;50.392;7.482;2023-05-12T02:44:06;100527.31;;;14.75;91.18
4981;BME280;2507;50.392;7.482;2023-05-12T02:46:32;100529.25;;;14.73;90.15
4981;BME280;2507;50.392;7.482;2023-05-12T02:48:57;100531.31;;;14.69;90.91
4981;BME280;2507;50.392;7.482;2023-05-12T02:51:22;100528.16;;;14.75;90.78
4981;BME280;2507;50.392;7.482;2023-05-12T02:53:48;100524.66;;;14.65;91.26
4981;BME280;2507;50.392;7.482;2023-05-12T02:56:13;100530.88;;;14.55;91.96
4981;BME280;2507;50.392;7.482;2023-05-12T02:58:38;100526.28;;;14.47;92.88
4981;BME280;2507;50.392;7.482;2023-05-12T03:01:03;100522.84;;;14.56;92.61
4981;BME280;2507;50.392;7.482;2023-05-12T03:03:29;100527.13;;;14.57;92.76
4981;BME280;2507;50.392;7.482;2023-05-12T03:05:54;100522.56;;;14.59;92.77
4981;BME280;2507;50.392;7.482;2023-05-12T03:08:19;100523.53;;;14.68;93.01
4981;BME280;2507;50.392;7.482;2023-05-12T03:10:45;100524.97;;;14.81;92.36
4981;BME280;2507;50.392;7.482;2023-05-12T03:13:10;100520.22;;;14.75;92.43
4981;BME280;2507;50.392;7.482;2023-05-12T03:15:35;100523.97;;;14.73;93.11
4981;BME280;2507;50.392;7.482;2023-05-12T03:18:01;100526.50;;;14.74;93.71
4981;BME280;2507;50.392;7.482;2023-05-12T03:20:26;100521.91;;;14.95;92.64
4981;BME280;2507;50.392;7.482;2023-05-12T03:22:51;100526.09;;;14.98;91.88
4981;BME280;2507;50.392;7.482;2023-05-12T03:25:17;100520.53;;;15.01;91.51
4981;BME280;2507;50.392;7.482;2023-05-12T03:27:42;100512.75;;;14.99;91.61
4981;BME280;2507;50.392;7.482;2023-05-12T03:30:08;100520.78;;;15.07;91.32
4981;BME280;2507;50.392;7.482;2023-05-12T03:32:33;100518.84;;;15.19;91.07
4981;BME280;2507;50.392;7.482;2023-05-12T03:34:59;100517.88;;;15.29;90.25
4981;BME280;2507;50.392;7.482;2023-05-12T03:37:24;100524.13;;;15.38;89.51
4981;BME280;2507;50.392;7.482;2023-05-12T03:39:49;100519.66;;;15.38;88.97
4981;BME280;2507;50.392;7.482;2023-05-12T03:42:15;100525.25;;;15.35;89.14
4981;BME280;2507;50.392;7.482;2023-05-12T03:44:40;100520.94;;;15.25;89.08
4981;BME280;2507;50.392;7.482;2023-05-12T03:47:05;100519.09;;;15.25;89.40
4981;BME280;2507;50.392;7.482;2023-05-12T03:49:31;100517.06;;;15.19;89.64
4981;BME280;2507;50.392;7.482;2023-05-12T03:51:56;100518.84;;;15.19;89.57
4981;BME280;2507;50.392;7.482;2023-05-12T03:54:22;100513.41;;;15.20;90.02
4981;BME280;2507;50.392;7.482;2023-05-12T03:56:47;100515.81;;;15.23;89.70
4981;BME280;2507;50.392;7.482;2023-05-12T03:59:12;100526.34;;;15.33;89.69
4981;BME280;2507;50.392;7.482;2023-05-12T04:01:38;100520.69;;;15.47;88.73
4981;BME280;2507;50.392;7.482;2023-05-12T04:04:03;100516.34;;;15.46;88.49
4981;BME280;2507;50.392;7.482;2023-05-12T04:06:28;100516.63;;;15.53;88.46
4981;BME280;2507;50.392;7.482;2023-05-12T04:08:54;100516.50;;;15.45;87.53
4981;BME280;2507;50.392;7.482;2023-05-12T04:11:19;100514.50;;;15.37;87.89
4981;BME280;2507;50.392;7.482;2023-05-12T04:13:44;100524.00;;;15.30;88.72
4981;BME280;2507;50.392;7.482;2023-05-12T04:16:10;100524.69;;;15.22;88.60
4981;BME280;2507;50.392;7.482;2023-05-12T04:18:35;100524.28;;;15.27;89.45
4981;BME280;2507;50.392;7.482;2023-05-12T04:21:01;100521.34;;;15.20;89.15
4981;BME280;2507;50.392;7.482;2023-05-12T04:23:27;100524.69;;;15.22;89.38
4981;BME280;2507;50.392;7.482;2023-05-12T04:25:52;100517.72;;;15.02;89.39
4981;BME280;2507;50.392;7.482;2023-05-12T04:28:17;100527.03;;;14.87;89.72
4981;BME280;2507;50.392;7.482;2023-05-12T04:30:42;100532.47;;;14.95;89.86
4981;BME280;2507;50.392;7.482;2023-05-12T04:33:08;100536.38;;;15.29;87.92
4981;BME280;2507;50.392;7.482;2023-05-12T04:35:34;100532.75;;;15.59;85.80
4981;BME280;2507;50.392;7.482;2023-05-12T04:37:59;100533.00;;;15.66;83.57
4981;BME280;2507;50.392;7.482;2023-05-12T04:40:28;100540.22;;;15.83;82.18
4981;BME280;2507;50.392;7.482;2023-05-12T04:42:53;100537.72;;;15.81;83.14
4981;BME280;2507;50.392;7.482;2023-05-12T04:45:19;100538.28;;;15.85;82.88
4981;BME280;2507;50.392;7.482;2023-05-12T04:47:44;100543.81;;;15.82;82.02
4981;BME280;2507;50.392;7.482;2023-05-12T04:50:10;100547.59;;;15.89;82.58
4981;BME280;2507;50.392;7.482;2023-05-12T04:52:36;100553.16;;;15.86;82.75
4981;BME280;2507;50.392;7.482;2023-05-12T04:55:02;100556.41;;;15.70;83.31
4981;BME280;2507;50.392;7.482;2023-05-12T04:57:27;100548.47;;;15.70;84.01
4981;BME280;2507;50.392;7.482;2023-05-12T04:59:53;100556.50;;;15.88;82.95
4981;BME280;2507;50.392;7.482;2023-05-12T05:02:18;100556.63;;;15.96;82.81
4981;BME280;2507;50.392;7.482;2023-05-12T05:04:43;100559.00;;;15.89;82.61
4981;BME280;2507;50.392;7.482;2023-05-12T05:07:09;100568.63;;;15.81;83.36
4981;BME280;2507;50.392;7.482;2023-05-12T05:09:34;100563.50;;;15.70;83.37
4981;BME280;2507;50.392;7.482;2023-05-12T05:11:59;100569.78;;;15.69;83.15
4981;BME280;2507;50.392;7.482;2023-05-12T05:14:25;100574.25;;;15.49;84.54
4981;BME280;2507;50.392;7.482;2023-05-12T05:16:50;100573.84;;;15.63;84.73
4981;BME280;2507;50.392;7.482;2023-05-12T05:19:16;100581.03;;;15.80;82.86
4981;BME280;2507;50.392;7.482;2023-05-12T05:21:41;100582.84;;;15.80;81.21
4981;BME280;2507;50.392;7.482;2023-05-12T05:24:07;100581.47;;;15.85;81.42
4981;BME280;2507;50.392;7.482;2023-05-12T05:26:33;100572.22;;;15.99;80.04
4981;BME280;2507;50.392;7.482;2023-05-12T05:28:59;100583.66;;;15.90;79.24
4981;BME280;2507;50.392;7.482;2023-05-12T05:31:24;100587.03;;;15.73;80.07
4981;BME280;2507;50.392;7.482;2023-05-12T05:33:52;100592.06;;;15.66;80.07
4981;BME280;2507;50.392;7.482;2023-05-12T05:36:18;100587.22;;;15.62;80.23
4981;BME280;2507;50.392;7.482;2023-05-12T05:38:43;100584.25;;;15.65;80.22
4981;BME280;2507;50.392;7.482;2023-05-12T05:41:08;100595.69;;;15.65;80.85
4981;BME280;2507;50.392;7.482;2023-05-12T05:43:33;100594.69;;;15.57;81.97
4981;BME280;2507;50.392;7.482;2023-05-12T05:45:59;100594.56;;;15.68;81.92
4981;BME280;2507;50.392;7.482;2023-05-12T05:48:25;100597.59;;;15.73;81.85
4981;BME280;2507;50.392;7.482;2023-05-12T05:50:51;100604.59;;;15.74;81.38
4981;BME280;2507;50.392;7.482;2023-05-12T05:53:17;100609.59;;;15.77;81.32
4981;BME280;2507;50.392;7.482;2023-05-12T05:55:43;100612.97;;;15.60;82.03
4981;BME280;2507;50.392;7.482;2023-05-12T05:58:08;100616.56;;;15.49;83.11
4981;BME280;2507;50.392;7.482;2023-05-12T06:00:34;100622.84;;;15.58;83.61
4981;BME280;2507;50.392;7.482;2023-05-12T06:02:59;100619.44;;;15.36;84.52
4981;BME280;2507;50.392;7.482;2023-05-12T06:05:25;100619.16;;;15.20;84.37
4981;BME280;2507;50.392;7.482;2023-05-12T06:07:50;100621.78;;;15.11;84.76
4981;BME280;2507;50.392;7.482;2023-05-12T06:10:15;100632.66;;;15.17;84.34
4981;BME280;2507;50.392;7.482;2023-05-12T06:12:40;100638.44;;;15.42;83.25
4981;BME280;2507;50.392;7.482;2023-05-12T06:15:07;100646.47;;;15.78;82.16
4981;BME280;2507;50.392;7.482;2023-05-12T06:17:32;100645.16;;;16.20;80.31
4981;BME280;2507;50.392;7.482;2023-05-12T06:19:58;100657.91;;;16.63;78.52
4981;BME280;2507;50.392;7.482;2023-05-12T06:22:23;100670.16;;;16.91;75.59
4981;BME280;2507;50.392;7.482;2023-05-12T06:24:49;100677.78;;;17.04;75.00
4981;BME280;2507;50.392;7.482;2023-05-12T06:27:14;100666.03;;;17.06;74.65
4981;BME280;2507;50.392;7.482;2023-05-12T06:29:40;100662.72;;;17.04;74.01
4981;BME280;2507;50.392;7.482;2023-05-12T06:32:05;100672.97;;;16.90;73.73
4981;BME280;2507;50.392;7.482;2023-05-12T06:34:31;100675.31;;;16.66;73.24
4981;BME280;2507;50.392;7.482;2023-05-12T06:36:56;100679.59;;;16.76;74.63
4981;BME280;2507;50.392;7.482;2023-05-12T06:39:22;100669.81;;;17.04;75.47
4981;BME280;2507;50.392;7.482;2023-05-12T06:41:47;100669.25;;;17.27;73.48
4981;BME280;2507;50.392;7.482;2023-05-12T06:44:12;100673.63;;;17.64;73.11
4981;BME280;2507;50.392;7.482;2023-05-12T06:46:38;100664.28;;;17.95;70.19
4981;BME280;2507;50.392;7.482;2023-05-12T06:49:06;100670.94;;;18.42;69.87
4981;BME280;2507;50.392;7.482;2023-05-12T06:51:32;100681.28;;;18.71;70.01
4981;BME280;2507;50.392;7.482;2023-05-12T06:53:58;100667.69;;;18.82;67.04
4981;BME280;2507;50.392;7.482;2023-05-12T06:56:23;100679.97;;;18.83;67.54
4981;BME280;2507;50.392;7.482;2023-05-12T06:58:48;100672.81;;;18.75;66.51
4981;BME280;2507;50.392;7.482;2023-05-12T07:01:14;100679.84;;;18.33;66.98
4981;BME280;2507;50.392;7.482;2023-05-12T07:03:40;100675.94;;;18.02;67.98
4981;BME280;2507;50.392;7.482;2023-05-12T07:06:05;100673.94;;;17.78;68.56
4981;BME280;2507;50.392;7.482;2023-05-12T07:08:31;100683.78;;;17.86;68.84
4981;BME280;2507;50.392;7.482;2023-05-12T07:10:59;100682.44;;;17.82;69.38
4981;BME280;2507;50.392;7.482;2023-05-12T07:13:24;100688.28;;;17.85;70.39
4981;BME280;2507;50.392;7.482;2023-05-12T07:15:49;100692.06;;;17.83;69.56
4981;BME280;2507;50.392;7.482;2023-05-12T07:18:15;100688.03;;;17.79;67.51
4981;BME280;2507;50.392;7.482;2023-05-12T07:20:40;100695.94;;;17.88;66.43
4981;BME280;2507;50.392;7.482;2023-05-12T07:23:05;100695.78;;;17.72;68.30
4981;BME280;2507;50.392;7.482;2023-05-12T07:25:30;100692.75;;;17.85;67.91
4981;BME280;2507;50.392;7.482;2023-05-12T07:27:56;100697.06;;;17.86;66.86
4981;BME280;2507;50.392;7.482;2023-05-12T07:30:21;100700.25;;;17.89;67.89
4981;BME280;2507;50.392;7.482;2023-05-12T07:32:46;100696.53;;;17.82;67.33
4981;BME280;2507;50.392;7.482;2023-05-12T07:35:12;100697.47;;;17.56;68.89
4981;BME280;2507;50.392;7.482;2023-05-12T07:37:37;100708.81;;;17.48;68.31
4981;BME280;2507;50.392;7.482;2023-05-12T07:40:03;100712.59;;;17.18;68.73
4981;BME280;2507;50.392;7.482;2023-05-12T07:42:29;100707.06;;;17.12;69.24
4981;BME280;2507;50.392;7.482;2023-05-12T07:44:54;100709.34;;;17.24;70.49
4981;BME280;2507;50.392;7.482;2023-05-12T07:47:20;100714.13;;;17.48;69.71
4981;BME280;2507;50.392;7.482;2023-05-12T07:49:45;100703.28;;;17.77;68.98
4981;BME280;2507;50.392;7.482;2023-05-12T07:52:10;100718.56;;;17.92;67.42
4981;BME280;2507;50.392;7.482;2023-05-12T07:54:35;100707.16;;;18.00;67.10
4981;BME280;2507;50.392;7.482;2023-05-12T07:57:01;100716.78;;;18.01;66.10
4981;BME280;2507;50.392;7.482;2023-05-12T07:59:27;100714.50;;;18.06;66.44
4981;BME280;2507;50.392;7.482;2023-05-12T08:01:52;100718.59;;;18.00;66.92
4981;BME280;2507;50.392;7.482;2023-05-12T08:04:18;100716.50;;;18.29;65.40
4981;BME280;2507;50.392;7.482;2023-05-12T08:06:43;100724.84;;;18.34;65.55
4981;BME280;2507;50.392;7.482;2023-05-12T08:09:09;100723.16;;;18.08;64.77
4981;BME280;2507;50.392;7.482;2023-05-12T08:11:34;100724.66;;;17.93;65.94
4981;BME280;2507;50.392;7.482;2023-05-12T08:14:00;100717.25;;;17.79;67.13
4981;BME280;2507;50.392;7.482;2023-05-12T08:16:25;100724.31;;;17.88;66.56
4981;BME280;2507;50.392;7.482;2023-05-12T08:18:51;100719.38;;;18.10;66.20
4981;BME280;2507;50.392;7.482;2023-05-12T08:21:16;100717.50;;;18.46;65.63
4981;BME280;2507;50.392;7.482;2023-05-12T08:23:41;100718.59;;;18.61;64.26
4981;BME280;2507;50.392;7.482;2023-05-12T08:26:07;100721.72;;;18.57;63.97
4981;BME280;2507;50.392;7.482;2023-05-12T08:28:33;100735.09;;;18.73;63.36
4981;BME280;2507;50.392;7.482;2023-05-12T08:30:58;100726.25;;;18.64;63.59
4981;BME280;2507;50.392;7.482;2023-05-12T08:33:23;100719.69;;;18.51;63.09
4981;BME280;2507;50.392;7.482;2023-05-12T08:35:49;100725.28;;;18.65;63.08
4981;BME280;2507;50.392;7.482;2023-05-12T08:38:15;100720.53;;;19.18;62.73
4981;BME280;2507;50.392;7.482;2023-05-12T08:40:46;100723.53;;;19.89;59.01
4981;BME280;2507;50.392;7.482;2023-05-12T08:43:25;100724.06;;;19.85;58.15
4981;BME280;2507;50.392;7.482;2023-05-12T08:45:54;100727.22;;;19.96;58.44
4981;BME280;2507;50.392;7.482;2023-05-12T08:48:24;100726.56;;;20.02;59.52
4981;BME280;2507;50.392;7.482;2023-05-12T08:50:52;100731.09;;;20.26;57.54
4981;BME280;2507;50.392;7.482;2023-05-12T08:53:18;100740.06;;;20.01;57.25
4981;BME280;2507;50.392;7.482;2023-05-12T08:55:45;100731.53;;;19.81;58.12
4981;BME280;2507;50.392;7.482;2023-05-12T08:58:11;100731.78;;;19.46;59.44
4981;BME280;2507;50.392;7.482;2023-05-12T09:00:37;100737.25;;;19.37;59.47
4981;BME280;2507;50.392;7.482;2023-05-12T09:03:05;100734.47;;;19.46;59.37
4981;BME280;2507;50.392;7.482;2023-05-12T09:05:32;100750.63;;;19.53;58.71
4981;BME280;2507;50.392;7.482;2023-05-12T09:07:58;100735.84;;;19.66;59.42
4981;BME280;2507;50.392;7.482;2023-05-12T09:10:25;100740.72;;;20.03;58.98
4981;BME280;2507;50.392;7.482;2023-05-12T09:12:53;100733.72;;;20.10;56.50
4981;BME280;2507;50.392;7.482;2023-05-12T09:15:26;100749.19;;;19.98;57.04
4981;BME280;2507;50.392;7.482;2023-05-12T09:17:51;100744.72;;;20.15;56.53
4981;BME280;2507;50.392;7.482;2023-05-12T09:20:17;100739.44;;;20.23;55.93
4981;BME280;2507;50.392;7.482;2023-05-12T09:22:42;100743.09;;;20.30;56.46
4981;BME280;2507;50.392;7.482;2023-05-12T09:25:15;100741.75;;;20.58;56.01
4981;BME280;2507;50.392;7.482;2023-05-12T09:27:42;100746.38;;;20.72;55.86
4981;BME280;2507;50.392;7.482;2023-05-12T09:30:08;100745.22;;;20.59;54.08
4981;BME280;2507;50.392;7.482;2023-05-12T09:32:34;100736.75;;;20.39;55.22
4981;BME280;2507;50.392;7.482;2023-05-12T09:35:09;100735.03;;;20.62;54.82
4981;BME280;2507;50.392;7.482;2023-05-12T09:37:36;100743.84;;;20.87;53.58
4981;BME280;2507;50.392;7.482;2023-05-12T09:40:02;100739.56;;;20.62;53.85
4981;BME280;2507;50.392;7.482;2023-05-12T09:42:29;100734.72;;;20.49;53.42
4981;BME280;2507;50.392;7.482;2023-05-12T09:45:03;100748.72;;;20.67;54.10
4981;BME280;2507;50.392;7.482;2023-05-12T09:47:35;100738.69;;;20.77;53.27
4981;BME280;2507;50.392;7.482;2023-05-12T09:50:02;100736.13;;;20.92;53.40
4981;BME280;2507;50.392;7.482;2023-05-12T09:52:29;100742.63;;;20.89;53.53
4981;BME280;2507;50.392;7.482;2023-05-12T09:55:06;100741.72;;;21.21;52.78
4981;BME280;2507;50.392;7.482;2023-05-12T09:57:35;100742.19;;;21.33;53.22
4981;BME280;2507;50.392;7.482;2023-05-12T10:00:04;100743.19;;;21.31;52.23
4981;BME280;2507;50.392;7.482;2023-05-12T10:02:31;100740.88;;;21.20;52.46
4981;BME280;2507;50.392;7.482;2023-05-12T10:05:01;100744.78;;;21.10;52.37
4981;BME280;2507;50.392;7.482;2023-05-12T10:07:29;100730.47;;;21.42;52.95
4981;BME280;2507;50.392;7.482;2023-05-12T10:09:58;100725.22;;;21.56;51.71
4981;BME280;2507;50.392;7.482;2023-05-12T10:12:25;100726.63;;;21.67;52.28
4981;BME280;2507;50.392;7.482;2023-05-12T10:14:50;100728.91;;;22.23;52.43
4981;BME280;2507;50.392;7.482;2023-05-12T10:17:18;100725.84;;;22.49;48.63
4981;BME280;2507;50.392;7.482;2023-05-12T10:19:43;100720.03;;;22.45;48.94
4981;BME280;2507;50.392;7.482;2023-05-12T10:22:10;100736.94;;;22.23;49.33
4981;BME280;2507;50.392;7.482;2023-05-12T10:24:36;100718.72;;;22.41;47.28
4981;BME280;2507;50.392;7.482;2023-05-12T10:27:03;100722.25;;;22.19;47.94
4981;BME280;2507;50.392;7.482;2023-05-12T10:29:30;100732.84;;;22.12;49.43
4981;BME280;2507;50.392;7.482;2023-05-12T10:31:57;100717.19;;;22.24;48.45
4981;BME280;2507;50.392;7.482;2023-05-12T10:34:36;100722.91;;;22.21;48.54
4981;BME280;2507;50.392;7.482;2023-05-12T10:37:05;100713.25;;;22.20;47.48
4981;BME280;2507;50.392;7.482;2023-05-12T10:39:33;100715.84;;;22.65;47.56
4981;BME280;2507;50.392;7.482;2023-05-12T10:42:20;100704.38;;;22.57;48.57
4981;BME280;2507;50.392;7.482;2023-05-12T10:44:50;100702.44;;;22.28;47.57
4981;BME280;2507;50.392;7.482;2023-05-12T10:47:16;100699.53;;;22.38;47.35
4981;BME280;2507;50.392;7.482;2023-05-12T10:49:41;100713.63;;;22.69;46.38
4981;BME280;2507;50.392;7.482;2023-05-12T10:52:11;100710.19;;;22.60;47.11
4981;BME280;2507;50.392;7.482;2023-05-12T10:54:41;100722.56;;;23.05;46.31
4981;BME280;2507;50.392;7.482;2023-05-12T10:57:12;100708.31;;;23.34;43.88
4981;BME280;2507;50.392;7.482;2023-05-12T10:59:47;100711.59;;;23.29;44.06
4981;BME280;2507;50.392;7.482;2023-05-12T11:02:18;100715.22;;;23.28;44.17
4981;BME280;2507;50.392;7.482;2023-05-12T11:04:52;100705.00;;;23.02;43.85
4981;BME280;2507;50.392;7.482;2023-05-12T11:07:21;100704.97;;;22.44;46.27
4981;BME280;2507;50.392;7.482;2023-05-12T11:09:49;100708.72;;;22.35;45.89
4981;BME280;2507;50.392;7.482;2023-05-12T11:12:15;100701.47;;;22.29;46.74
4981;BME280;2507;50.392;7.482;2023-05-12T11:14:42;100711.34;;;22.06;46.70
4981;BME280;2507;50.392;7.482;2023-05-12T11:17:08;100712.41;;;21.97;46.85
4981;BME280;2507;50.392;7.482;2023-05-12T11:19:37;100706.88;;;21.76;46.81
4981;BME280;2507;50.392;7.482;2023-05-12T11:22:08;100709.84;;;21.58;47.01
4981;BME280;2507;50.392;7.482;2023-05-12T11:24:34;100710.75;;;21.43;47.98
4981;BME280;2507;50.392;7.482;2023-05-12T11:27:02;100716.06;;;21.20;48.42
4981;BME280;2507;50.392;7.482;2023-05-12T11:29:28;100715.78;;;21.38;48.02
4981;BME280;2507;50.392;7.482;2023-05-12T11:31:54;100731.84;;;21.29;48.73
4981;BME280;2507;50.392;7.482;2023-05-12T11:34:20;100721.84;;;20.77;48.71
4981;BME280;2507;50.392;7.482;2023-05-12T11:36:46;100722.41;;;20.56;50.02
4981;BME280;2507;50.392;7.482;2023-05-12T11:39:15;100737.44;;;20.25;49.82
4981;BME280;2507;50.392;7.482;2023-05-12T11:41:40;100717.06;;;20.08;50.25
4981;BME280;2507;50.392;7.482;2023-05-12T11:44:20;100739.03;;;20.02;51.06
4981;BME280;2507;50.392;7.482;2023-05-12T11:47:17;100733.88;;;20.00;50.98
4981;BME280;2507;50.392;7.482;2023-05-12T11:49:50;100743.91;;;20.14;51.17
4981;BME280;2507;50.392;7.482;2023-05-12T11:52:18;100734.38;;;20.04;51.45
4981;BME280;2507;50.392;7.482;2023-05-12T11:54:52;100739.38;;;19.99;51.34
4981;BME280;2507;50.392;7.482;2023-05-12T11:57:27;100738.69;;;19.81;52.21
4981;BME280;2507;50.392;7.482;2023-05-12T12:00:02;100740.69;;;19.79;52.71
4981;BME280;2507;50.392;7.482;2023-05-12T12:02:28;100736.38;;;19.86;52.52
4981;BME280;2507;50.392;7.482;2023-05-12T12:04:53;100741.38;;;19.89;53.04
4981;BME280;2507;50.392;7.482;2023-05-12T12:07:29;100743.03;;;20.06;52.76
4981;BME280;2507;50.392;7.482;2023-05-12T12:09:55;100744.41;;;20.26;53.01
4981;BME280;2507;50.392;7.482;2023-05-12T12:12:20;100741.75;;;20.58;51.96
4981;BME280;2507;50.392;7.482;2023-05-12T12:14:46;100748.03;;;20.73;50.84
4981;BME280;2507;50.392;7.482;2023-05-12T12:17:11;100742.50;;;20.75;51.58
4981;BME280;2507;50.392;7.482;2023-05-12T12:19:36;100736.97;;;20.92;51.36
4981;BME280;2507;50.392;7.482;2023-05-12T12:22:02;100742.63;;;20.89;50.62
4981;BME280;2507;50.392;7.482;2023-05-12T12:24:27;100734.69;;;20.81;51.16
4981;BME280;2507;50.392;7.482;2023-05-12T12:26:52;100728.00;;;20.69;51.82
4981;BME280;2507;50.392;7.482;2023-05-12T12:29:17;100736.84;;;20.70;50.90
4981;BME280;2507;50.392;7.482;2023-05-12T12:31:43;100739.88;;;20.59;51.18
4981;BME280;2507;50.392;7.482;2023-05-12T12:34:08;100741.06;;;20.40;52.03
4981;BME280;2507;50.392;7.482;2023-05-12T12:36:34;100745.41;;;20.41;51.99
4981;BME280;2507;50.392;7.482;2023-05-12T12:38:59;100755.53;;;20.13;53.38
4981;BME280;2507;50.392;7.482;2023-05-12T12:41:25;100747.72;;;20.12;54.11
4981;BME280;2507;50.392;7.482;2023-05-12T12:43:51;100760.72;;;20.07;55.18
4981;BME280;2507;50.392;7.482;2023-05-12T12:46:17;100789.84;;;20.00;56.71
4981;BME280;2507;50.392;7.482;2023-05-12T12:48:42;100789.81;;;19.76;58.71
4981;BME280;2507;50.392;7.482;2023-05-12T12:51:07;100785.84;;;19.39;61.75
4981;BME280;2507;50.392;7.482;2023-05-12T12:53:33;100784.06;;;19.47;62.28
4981;BME280;2507;50.392;7.482;2023-05-12T12:55:59;100773.09;;;19.50;63.36
4981;BME280;2507;50.392;7.482;2023-05-12T12:58:24;100778.69;;;19.89;61.22
4981;BME280;2507;50.392;7.482;2023-05-12T13:00:50;100766.41;;;20.28;58.73
4981;BME280;2507;50.392;7.482;2023-05-12T13:03:15;100764.19;;;20.72;58.71
4981;BME280;2507;50.392;7.482;2023-05-12T13:05:40;100764.25;;;21.18;56.83